Time;durP1;ratioP1;P1;durP2;ratioP2;P2;SDS_P1;SDS_P2;PMS_P1;PMS_P2;Temp;Humidity;BMP_temperature;BMP_pressure;BME280_temperature;BME280_humidity;BME280_pressure;Samples;Min_cycle;Max_cycle;Signal;HPM_P1;HPM_P2
2022/08/13 00:02:15;;;;;;;5.60;3.30;;;18.30;99.90;;;;;;5046843;28;20550;-81
2022/08/13 00:04:44;;;;;;;4.72;3.75;;;18.20;99.90;;;;;;5054513;28;20051;-80
2022/08/13 00:07:10;;;;;;;7.45;3.15;;;18.20;99.90;;;;;;5036279;28;20030;-81
2022/08/13 00:09:39;;;;;;;4.00;3.60;;;18.10;99.90;;;;;;5054127;28;20028;-82
2022/08/13 00:15:08;;;;;;;3.85;3.40;;;18.10;99.90;;;;;;5054732;28;20070;-81
2022/08/13 00:17:34;;;;;;;4.75;3.55;;;18.10;99.90;;;;;;5054451;28;20028;-81
2022/08/13 00:19:59;;;;;;;5.63;3.05;;;18.00;99.90;;;;;;5036198;28;20036;-81
2022/08/13 00:22:26;;;;;;;4.30;3.60;;;17.90;99.90;;;;;;5035885;28;20511;-81
2022/08/13 00:24:53;;;;;;;4.57;3.70;;;17.90;99.90;;;;;;5054141;28;20044;-81
2022/08/13 00:27:22;;;;;;;4.95;3.40;;;17.80;99.90;;;;;;5054269;28;20025;-81
2022/08/13 00:29:48;;;;;;;5.85;3.70;;;17.80;99.90;;;;;;5046816;28;20048;-81
2022/08/13 00:32:15;;;;;;;5.38;3.67;;;17.80;99.90;;;;;;5036004;28;20029;-80
2022/08/13 00:34:41;;;;;;;5.82;3.70;;;17.80;99.90;;;;;;5053713;28;20108;-81
2022/08/13 00:37:09;;;;;;;4.03;3.40;;;17.80;99.90;;;;;;5053993;28;20160;-81
2022/08/13 00:39:35;;;;;;;5.63;3.50;;;17.70;99.90;;;;;;5035664;28;20029;-81
2022/08/13 00:42:01;;;;;;;5.22;3.45;;;17.70;99.90;;;;;;5053579;28;20033;-80
2022/08/13 00:44:31;;;;;;;7.00;3.88;;;17.60;99.90;;;;;;5046162;28;20484;-81
2022/08/13 00:49:42;;;;;;;5.05;3.50;;;17.50;99.90;;;;;;5052584;28;20075;-81
2022/08/13 00:52:09;;;;;;;4.68;3.60;;;17.50;99.90;;;;;;5045155;22;20050;-72
2022/08/13 00:54:34;;;;;;;4.47;3.78;;;17.50;99.90;;;;;;4990409;28;20479;-72
2022/08/13 00:57:06;;;;;;;4.75;3.85;;;17.50;99.90;;;;;;4983308;28;20056;-72
2022/08/13 00:59:32;;;;;;;5.60;3.85;;;17.50;99.90;;;;;;4990017;28;20053;-72
2022/08/13 01:01:58;;;;;;;5.57;3.78;;;17.40;99.90;;;;;;4982353;28;20135;-72
2022/08/13 01:04:25;;;;;;;4.07;3.65;;;17.30;99.90;;;;;;4971065;28;20117;-72
2022/08/13 01:06:51;;;;;;;5.35;4.15;;;17.30;99.90;;;;;;4970987;28;20088;-72
2022/08/13 01:09:17;;;;;;;4.65;3.95;;;17.20;99.90;;;;;;4971151;28;20023;-72
2022/08/13 01:11:44;;;;;;;7.45;4.13;;;17.10;99.90;;;;;;4971131;28;20026;-72
2022/08/13 01:14:11;;;;;;;5.53;3.92;;;17.10;99.90;;;;;;4971359;28;20042;-72
2022/08/13 01:16:37;;;;;;;6.30;4.10;;;17.00;99.90;;;;;;4971551;28;20023;-72
2022/08/13 01:19:09;;;;;;;6.13;4.35;;;17.00;99.90;;;;;;4971815;28;20114;-72
2022/08/13 01:21:39;;;;;;;5.50;3.72;;;16.90;99.90;;;;;;4964762;28;20065;-72
2022/08/13 01:24:10;;;;;;;3.97;3.58;;;16.90;99.90;;;;;;4971485;28;20053;-72
2022/08/13 01:26:36;;;;;;;4.82;4.10;;;16.90;99.90;;;;;;4971615;28;20117;-72
2022/08/13 01:29:05;;;;;;;7.28;4.25;;;16.80;99.90;;;;;;4970946;28;20057;-72
2022/08/13 01:31:32;;;;;;;5.50;4.85;;;16.80;99.90;;;;;;4971041;28;20019;-72
2022/08/13 01:33:59;;;;;;;5.45;4.00;;;16.80;99.90;;;;;;4969890;28;20111;-72
2022/08/13 01:36:27;;;;;;;4.72;4.10;;;16.70;99.90;;;;;;4971490;28;20038;-72
2022/08/13 01:38:53;;;;;;;5.03;4.53;;;16.70;99.90;;;;;;4964264;28;20026;-72
2022/08/13 01:41:19;;;;;;;5.35;3.72;;;16.70;99.90;;;;;;4971077;28;20050;-72
2022/08/13 01:43:46;;;;;;;7.88;4.25;;;16.70;99.90;;;;;;4971188;28;20026;-72
2022/08/13 01:46:12;;;;;;;7.63;4.30;;;16.70;99.90;;;;;;4971105;28;20042;-72
2022/08/13 01:51:32;;;;;;;5.43;4.05;;;16.70;99.90;;;;;;5011073;23;20075;-76
2022/08/13 01:53:59;;;;;;;4.78;4.20;;;16.60;99.90;;;;;;5070836;28;20031;-76
2022/08/13 01:56:29;;;;;;;5.88;3.83;;;16.60;99.90;;;;;;5071332;28;20017;-76
2022/08/13 01:58:57;;;;;;;6.78;4.45;;;16.50;99.90;;;;;;5063740;28;20016;-76
2022/08/13 02:01:25;;;;;;;7.47;4.70;;;16.40;99.90;;;;;;5070724;28;20035;-76
2022/08/13 02:03:58;;;;;;;5.75;4.75;;;16.40;99.90;;;;;;5071092;28;20028;-76
2022/08/13 02:06:30;;;;;;;5.75;4.40;;;16.40;99.90;;;;;;5070821;28;20031;-76
2022/08/13 02:08:59;;;;;;;5.95;4.18;;;16.30;99.90;;;;;;5047080;28;20091;-76
2022/08/13 02:11:32;;;;;;;5.10;4.60;;;16.30;99.90;;;;;;5070950;28;20028;-76
2022/08/13 02:14:02;;;;;;;4.68;4.18;;;16.30;99.90;;;;;;5070424;28;20031;-76
2022/08/13 02:16:36;;;;;;;5.13;4.43;;;16.30;99.90;;;;;;5052948;28;20036;-76
2022/08/13 02:19:04;;;;;;;7.30;3.90;;;16.40;99.90;;;;;;5071224;28;20028;-76
2022/08/13 02:21:36;;;;;;;6.60;3.97;;;16.30;99.90;;;;;;5070542;28;20035;-76
2022/08/13 02:24:03;;;;;;;9.80;4.22;;;16.30;99.90;;;;;;5071128;28;20223;-76
2022/08/13 02:26:32;;;;;;;5.80;4.20;;;16.30;99.90;;;;;;5070769;28;20017;-76
2022/08/13 02:29:01;;;;;;;9.32;4.25;;;16.20;99.90;;;;;;5070923;28;20107;-76
2022/08/13 02:31:28;;;;;;;6.47;4.60;;;16.10;99.90;;;;;;5070444;28;20024;-77
2022/08/13 02:33:54;;;;;;;7.32;4.40;;;16.10;99.90;;;;;;5070640;28;20017;-76
2022/08/13 02:36:22;;;;;;;4.43;4.00;;;16.00;99.90;;;;;;5052675;28;20423;-76
2022/08/13 02:39:02;;;;;;;6.88;4.70;;;16.00;99.90;;;;;;5052529;28;20075;-76
2022/08/13 02:41:38;;;;;;;6.40;4.45;;;16.00;99.90;;;;;;5070093;28;20020;-76
2022/08/13 02:44:10;;;;;;;5.80;3.88;;;15.90;99.90;;;;;;5070478;28;20551;-76
2022/08/13 02:46:40;;;;;;;6.15;4.03;;;15.90;99.90;;;;;;5070674;28;20047;-76
2022/08/13 02:49:06;;;;;;;5.82;4.32;;;15.90;99.90;;;;;;5070858;28;20052;-76
2022/08/13 02:51:32;;;;;;;5.65;4.55;;;15.80;99.90;;;;;;5086409;22;20412;-73
2022/08/13 02:54:00;;;;;;;4.68;4.25;;;15.80;99.90;;;;;;5068851;28;20036;-73
2022/08/13 02:56:29;;;;;;;5.22;4.32;;;15.80;99.90;;;;;;5070256;28;20028;-73
2022/08/13 02:58:56;;;;;;;4.93;4.47;;;15.70;99.90;;;;;;5063934;28;20025;-74
2022/08/13 03:01:25;;;;;;;6.20;4.50;;;15.70;99.90;;;;;;5048996;28;20569;-74
2022/08/13 03:03:52;;;;;;;8.15;4.95;;;15.70;99.90;;;;;;5051218;28;20492;-74
2022/08/13 03:06:19;;;;;;;8.43;5.03;;;15.70;99.90;;;;;;5050821;28;20116;-73
2022/08/13 03:08:48;;;;;;;8.45;4.47;;;15.70;99.90;;;;;;5051244;28;20031;-74
2022/08/13 03:11:14;;;;;;;7.00;4.78;;;15.60;99.90;;;;;;5050490;28;20065;-73
2022/08/13 03:13:43;;;;;;;7.32;4.82;;;15.60;99.90;;;;;;5050728;28;20455;-73
2022/08/13 03:16:12;;;;;;;5.35;4.38;;;15.60;99.90;;;;;;5043735;28;20031;-73
2022/08/13 03:18:37;;;;;;;5.45;4.53;;;15.60;99.90;;;;;;5051164;28;20032;-73
2022/08/13 03:21:03;;;;;;;7.45;4.88;;;15.50;99.90;;;;;;5051096;28;20393;-73
2022/08/13 03:23:32;;;;;;;8.18;4.95;;;15.60;99.90;;;;;;5051005;28;20017;-74
2022/08/13 03:25:57;;;;;;;6.60;4.60;;;15.50;99.90;;;;;;5050970;28;20013;-73
2022/08/13 03:28:23;;;;;;;7.18;4.85;;;15.60;99.90;;;;;;5051095;28;20025;-73
2022/08/13 03:30:49;;;;;;;7.13;4.68;;;15.60;99.90;;;;;;5050712;28;20098;-73
2022/08/13 03:33:15;;;;;;;5.40;4.10;;;15.50;99.90;;;;;;5050996;28;20033;-73
2022/08/13 03:35:41;;;;;;;7.25;4.47;;;15.60;99.90;;;;;;5051012;28;20104;-73
2022/08/13 03:38:11;;;;;;;5.22;4.72;;;15.60;99.90;;;;;;5050974;28;20033;-73
2022/08/13 03:43:22;;;;;;;6.55;4.47;;;15.70;99.90;;;;;;5051306;28;20121;-73
2022/08/13 03:45:48;;;;;;;6.47;4.30;;;15.70;99.90;;;;;;5056520;28;20021;-74
2022/08/13 03:48:15;;;;;;;7.63;4.30;;;15.70;99.90;;;;;;5050512;28;20382;-73
2022/08/13 03:50:46;;;;;;;8.18;4.85;;;15.70;99.90;;;;;;5043641;28;20098;-73
2022/08/13 03:53:13;;;;;;;5.75;4.68;;;15.70;99.90;;;;;;5082504;22;20040;-76
2022/08/13 03:55:39;;;;;;;7.15;4.75;;;15.70;99.90;;;;;;5051291;28;20400;-76
2022/08/13 03:58:09;;;;;;;6.07;4.95;;;15.80;99.90;;;;;;5069922;28;20032;-76
2022/08/13 04:00:47;;;;;;;7.07;4.93;;;15.80;99.90;;;;;;5069541;28;20033;-76
2022/08/13 04:03:25;;;;;;;10.25;4.60;;;15.80;99.90;;;;;;5059220;28;20029;-76
2022/08/13 04:05:59;;;;;;;5.38;4.72;;;15.70;99.90;;;;;;5051139;28;20040;-76
2022/08/13 04:08:27;;;;;;;8.77;4.43;;;15.70;99.90;;;;;;5050721;28;20025;-76
2022/08/13 04:10:53;;;;;;;7.05;4.57;;;15.70;99.90;;;;;;5050605;28;20481;-76
2022/08/13 04:13:20;;;;;;;5.63;4.90;;;15.70;99.90;;;;;;5050778;28;20022;-76
2022/08/13 04:15:46;;;;;;;5.55;4.68;;;15.70;99.90;;;;;;5057375;28;20021;-76
2022/08/13 04:18:13;;;;;;;5.90;4.60;;;15.70;99.90;;;;;;5050872;28;20013;-76
2022/08/13 04:20:43;;;;;;;9.93;5.20;;;15.60;99.90;;;;;;5057382;28;20025;-76
2022/08/13 04:23:17;;;;;;;10.43;5.30;;;15.60;99.90;;;;;;5052452;28;20025;-77
2022/08/13 04:25:53;;;;;;;7.20;4.53;;;15.60;99.90;;;;;;5054683;28;20016;-76
2022/08/13 04:28:20;;;;;;;7.63;4.60;;;15.60;99.90;;;;;;5036489;28;20563;-76
2022/08/13 04:30:47;;;;;;;6.95;5.07;;;15.60;99.90;;;;;;5054253;28;20021;-76
2022/08/13 04:33:15;;;;;;;8.25;5.40;;;15.60;99.90;;;;;;5054304;28;20078;-76
2022/08/13 04:35:42;;;;;;;6.25;5.28;;;15.70;99.90;;;;;;5054178;28;20070;-76
2022/08/13 04:38:08;;;;;;;7.32;5.60;;;15.70;99.90;;;;;;5053833;28;20056;-76
2022/08/13 04:40:39;;;;;;;7.85;5.97;;;15.70;99.90;;;;;;5054086;28;20056;-76
2022/08/13 04:43:06;;;;;;;7.17;5.50;;;15.70;99.90;;;;;;5054116;28;20025;-77
2022/08/13 04:45:33;;;;;;;6.25;4.88;;;15.60;99.90;;;;;;5061179;28;20258;-76
2022/08/13 04:48:12;;;;;;;10.45;5.25;;;15.50;99.90;;;;;;5053832;28;20139;-76
2022/08/13 04:50:40;;;;;;;7.60;4.85;;;15.50;99.90;;;;;;5060788;28;20020;-77
2022/08/13 04:53:08;;;;;;;7.22;6.00;;;15.50;99.90;;;;;;5035022;28;20122;-77
2022/08/13 04:55:36;;;;;;;8.68;5.68;;;15.60;99.90;;;;;;5054271;28;20488;-76
2022/08/13 04:58:02;;;;;;;8.85;5.30;;;15.60;99.90;;;;;;5035965;28;20385;-76
2022/08/13 05:00:32;;;;;;;7.05;5.70;;;15.60;99.90;;;;;;5053971;28;20067;-76
2022/08/13 05:03:07;;;;;;;9.68;6.18;;;15.70;99.90;;;;;;5053850;28;20636;-76
2022/08/13 05:05:35;;;;;;;11.85;6.15;;;15.70;99.90;;;;;;5053947;28;20045;-76
2022/08/13 05:08:01;;;;;;;7.00;5.85;;;15.70;99.90;;;;;;5053674;28;20033;-76
2022/08/13 05:10:28;;;;;;;8.25;5.95;;;15.70;99.90;;;;;;5053657;28;20367;-76
2022/08/13 05:12:54;;;;;;;10.60;6.10;;;15.70;99.90;;;;;;5053489;28;20557;-76
2022/08/13 05:15:19;;;;;;;9.63;6.43;;;15.80;99.90;;;;;;5060368;28;20032;-76
2022/08/13 05:17:45;;;;;;;10.05;6.45;;;16.10;99.90;;;;;;5053496;28;20013;-76
2022/08/13 05:20:13;;;;;;;9.82;6.60;;;16.30;99.90;;;;;;5035519;28;20109;-76
2022/08/13 05:22:39;;;;;;;10.57;6.25;;;16.40;99.90;;;;;;5037944;22;20570;-73
2022/08/13 05:25:05;;;;;;;8.40;5.50;;;16.60;99.90;;;;;;4990842;28;20027;-74
2022/08/13 05:27:31;;;;;;;7.88;5.82;;;16.60;99.90;;;;;;4990315;28;20019;-74
2022/08/13 05:29:58;;;;;;;9.00;5.60;;;16.70;99.90;;;;;;4990321;28;20029;-74
2022/08/13 05:32:27;;;;;;;14.20;6.50;;;16.70;99.90;;;;;;4990052;28;20016;-74
2022/08/13 05:34:53;;;;;;;9.18;6.38;;;16.70;99.90;;;;;;4988341;28;20046;-74
2022/08/13 05:37:18;;;;;;;10.32;6.68;;;16.70;99.90;;;;;;4989174;28;20022;-73
2022/08/13 05:39:45;;;;;;;10.02;6.40;;;16.80;99.90;;;;;;4989469;28;20025;-73
2022/08/13 05:42:11;;;;;;;12.77;4.97;;;16.90;99.90;;;;;;4989174;28;20042;-73
2022/08/13 05:44:37;;;;;;;7.85;5.88;;;17.00;99.90;;;;;;4989434;28;20090;-73
2022/08/13 05:47:04;;;;;;;7.78;5.90;;;17.10;99.90;;;;;;4989690;28;20440;-73
2022/08/13 05:49:30;;;;;;;7.47;6.05;;;17.20;99.90;;;;;;4989195;28;20678;-74
2022/08/13 05:51:57;;;;;;;8.40;5.90;;;17.30;99.90;;;;;;4984393;28;20023;-73
2022/08/13 05:54:23;;;;;;;8.82;5.47;;;17.40;99.90;;;;;;4989767;28;20528;-74
2022/08/13 05:56:49;;;;;;;11.75;6.00;;;17.40;99.90;;;;;;4989315;28;20026;-73
2022/08/13 06:04:43;;;;;;;15.13;6.13;;;17.60;99.90;;;;;;4989206;28;20033;-73
2022/08/13 06:07:13;;;;;;;8.18;5.63;;;17.70;99.90;;;;;;4989466;28;20026;-73
2022/08/13 06:09:39;;;;;;;7.05;5.55;;;17.80;99.90;;;;;;4988947;28;20526;-73
2022/08/13 06:12:05;;;;;;;11.20;4.78;;;17.80;99.90;;;;;;4988385;28;20065;-73
2022/08/13 06:14:33;;;;;;;9.85;6.50;;;17.90;99.90;;;;;;4989052;28;20102;-74
2022/08/13 06:17:00;;;;;;;10.77;5.47;;;18.10;99.90;;;;;;4989228;28;20048;-73
2022/08/13 06:19:29;;;;;;;7.10;5.05;;;18.30;99.90;;;;;;4988869;28;20434;-74
2022/08/13 06:22:04;;;;;;;8.18;4.68;;;18.50;99.90;;;;;;5025832;22;20075;-81
2022/08/13 06:24:37;;;;;;;9.75;5.55;;;18.70;99.90;;;;;;5047214;28;20477;-80
2022/08/13 06:27:05;;;;;;;8.85;5.50;;;18.80;99.90;;;;;;5052876;28;20093;-80
2022/08/13 06:29:35;;;;;;;9.00;5.72;;;18.90;99.90;;;;;;5070437;28;20029;-80
2022/08/13 06:32:03;;;;;;;9.38;5.57;;;19.10;99.90;;;;;;5070694;28;20024;-81
2022/08/13 06:34:34;;;;;;;8.15;5.53;;;19.20;99.90;;;;;;5052932;28;20146;-81
2022/08/13 06:37:04;;;;;;;7.65;5.43;;;19.50;99.90;;;;;;5071009;28;20039;-81
2022/08/13 06:39:32;;;;;;;6.75;4.75;;;19.60;99.90;;;;;;5052734;28;20078;-81
2022/08/13 06:42:03;;;;;;;10.52;4.70;;;19.70;99.90;;;;;;5070858;28;20035;-81
2022/08/13 06:44:32;;;;;;;13.25;5.32;;;19.80;99.90;;;;;;5070998;28;20481;-81
2022/08/13 06:47:03;;;;;;;6.57;5.20;;;19.90;99.90;;;;;;5052767;28;20374;-80
2022/08/13 06:49:31;;;;;;;12.90;5.25;;;19.90;99.90;;;;;;5070838;28;20074;-83
2022/08/13 06:51:58;;;;;;;8.27;4.93;;;20.00;99.90;;;;;;5070678;28;20020;-81
2022/08/13 06:54:24;;;;;;;6.38;4.32;;;20.10;99.90;;;;;;5070592;28;20012;-80
2022/08/13 06:56:53;;;;;;;10.45;4.78;;;20.20;99.90;;;;;;5052359;28;20020;-81
2022/08/13 06:59:21;;;;;;;6.43;4.70;;;20.30;99.90;;;;;;5070402;28;20101;-81
2022/08/13 07:01:47;;;;;;;7.43;4.90;;;20.40;99.90;;;;;;5070755;28;20024;-80
2022/08/13 07:04:18;;;;;;;12.77;4.25;;;20.40;99.90;;;;;;5070274;28;20016;-81
2022/08/13 07:06:47;;;;;;;10.77;5.00;;;20.50;99.90;;;;;;5070652;28;20027;-81
2022/08/13 07:09:14;;;;;;;6.53;4.32;;;20.60;99.90;;;;;;5070084;28;20021;-80
2022/08/13 07:11:44;;;;;;;5.90;4.70;;;20.70;99.90;;;;;;5052022;28;20016;-81
2022/08/13 07:14:10;;;;;;;7.70;5.10;;;20.70;99.90;;;;;;5069397;28;20427;-80
2022/08/13 07:16:36;;;;;;;8.30;4.35;;;20.80;99.90;;;;;;5052094;28;20104;-80
2022/08/13 07:19:03;;;;;;;6.43;4.22;;;21.00;99.90;;;;;;5052467;28;20111;-80
2022/08/13 07:21:30;;;;;;;6.57;4.30;;;21.10;99.90;;;;;;5091104;22;20034;-72
2022/08/13 07:23:58;;;;;;;6.03;3.83;;;21.10;99.90;;;;;;5068566;28;20040;-73
2022/08/13 07:26:29;;;;;;;6.63;4.00;;;21.10;99.90;;;;;;5069581;28;20032;-73
2022/08/13 07:28:55;;;;;;;5.80;3.80;;;21.30;99.90;;;;;;5063279;28;20385;-73
2022/08/13 07:31:29;;;;;;;5.97;3.60;;;21.30;99.90;;;;;;5069545;28;20481;-74
2022/08/13 07:33:57;;;;;;;5.65;3.63;;;21.30;99.90;;;;;;5070513;28;20024;-74
2022/08/13 07:36:36;;;;;;;9.38;4.22;;;21.40;99.90;;;;;;5070398;28;20032;-74
2022/08/13 07:39:11;;;;;;;12.80;4.05;;;21.50;99.90;;;;;;5064415;28;20094;-74
2022/08/13 07:41:42;;;;;;;5.63;3.67;;;21.60;99.90;;;;;;5063221;28;20032;-74
2022/08/13 07:44:20;;;;;;;6.75;4.05;;;21.80;99.90;;;;;;5069756;28;20017;-74
2022/08/13 07:46:46;;;;;;;8.13;3.40;;;21.90;99.90;;;;;;5069110;28;20033;-74
2022/08/13 07:49:12;;;;;;;6.25;3.55;;;21.90;99.90;;;;;;5069525;28;20020;-74
2022/08/13 07:51:41;;;;;;;5.47;3.40;;;22.00;99.90;;;;;;5062669;28;20025;-74
2022/08/13 07:54:07;;;;;;;7.55;4.28;;;22.10;99.90;;;;;;5069735;28;20465;-74
2022/08/13 07:56:34;;;;;;;7.65;4.18;;;22.20;99.90;;;;;;5069648;28;20040;-76
2022/08/13 07:59:15;;;;;;;6.57;3.75;;;22.30;99.90;;;;;;5073902;28;20020;-75
2022/08/13 08:01:54;;;;;;;5.72;3.20;;;22.30;99.90;;;;;;5067201;28;20120;-74
2022/08/13 08:04:24;;;;;;;8.73;3.50;;;22.40;99.90;;;;;;5072457;28;20052;-74
2022/08/13 08:06:50;;;;;;;7.82;3.50;;;22.40;99.90;;;;;;5073119;28;20032;-74
2022/08/13 08:09:24;;;;;;;6.03;3.45;;;22.50;99.90;;;;;;5073536;28;20504;-74
2022/08/13 08:14:37;;;;;;;6.30;3.20;;;22.70;99.90;;;;;;5068828;28;20035;-74
2022/08/13 08:17:05;;;;;;;3.50;3.20;;;22.80;99.90;;;;;;5051308;28;20017;-74
2022/08/13 08:19:31;;;;;;;5.13;4.10;;;22.90;99.90;;;;;;5054694;28;20028;-72
2022/08/13 08:21:59;;;;;;;5.80;3.22;;;23.00;99.90;;;;;;5096840;22;20044;-79
2022/08/13 08:24:26;;;;;;;7.78;3.58;;;23.20;99.90;;;;;;5054010;28;20025;-79
2022/08/13 08:26:55;;;;;;;5.65;3.10;;;23.30;99.90;;;;;;5047104;28;20021;-79
2022/08/13 08:29:22;;;;;;;5.68;3.35;;;23.40;99.90;;;;;;5063259;28;20019;-80
2022/08/13 08:31:49;;;;;;;6.80;2.92;;;23.50;99.90;;;;;;5063319;28;20016;-80
2022/08/13 08:34:17;;;;;;;7.45;3.20;;;23.60;99.90;;;;;;5063583;28;20035;-79
2022/08/13 08:36:43;;;;;;;8.75;3.47;;;23.70;99.90;;;;;;5050727;28;20029;-78
2022/08/13 08:44:43;;;;;;;5.43;2.90;;;24.00;99.90;;;;;;5065161;28;20074;-78
2022/08/13 08:47:10;;;;;;;3.53;2.67;;;24.20;99.90;;;;;;5072721;28;20025;-78
2022/08/13 08:49:37;;;;;;;5.45;3.30;;;24.30;99.90;;;;;;5070236;28;20016;-79
2022/08/13 08:52:03;;;;;;;3.83;2.92;;;24.50;99.90;;;;;;5071828;28;20047;-79
2022/08/13 08:54:30;;;;;;;6.78;2.70;;;24.60;94.60;;;;;;5072650;28;20017;-79
2022/08/13 08:56:57;;;;;;;3.60;2.67;;;24.70;95.50;;;;;;5072224;28;20024;-79
2022/08/13 08:59:25;;;;;;;5.32;3.05;;;24.90;95.70;;;;;;5058842;28;20412;-79
2022/08/13 09:01:55;;;;;;;3.53;2.60;;;25.00;86.40;;;;;;5058635;28;20029;-79
2022/08/13 09:04:25;;;;;;;2.20;1.95;;;25.20;87.30;;;;;;5065386;28;20036;-79
2022/08/13 09:06:52;;;;;;;7.07;2.30;;;25.30;75.00;;;;;;5072107;28;20103;-79
2022/08/13 09:09:20;;;;;;;6.47;2.60;;;25.50;73.60;;;;;;5054379;28;20029;-79
2022/08/13 09:11:52;;;;;;;3.13;2.45;;;25.70;74.50;;;;;;5071127;28;20020;-79
2022/08/13 09:14:19;;;;;;;3.63;2.38;;;25.80;69.30;;;;;;5050194;28;20028;-78
2022/08/13 09:16:45;;;;;;;4.45;2.22;;;26.00;69.90;;;;;;5062015;28;20028;-79
2022/08/13 09:19:14;;;;;;;2.78;2.40;;;26.30;69.40;;;;;;5068829;28;20025;-79
2022/08/13 09:21:47;;;;;;;2.60;2.22;;;26.60;62.40;;;;;;5068842;28;20106;-78
2022/08/13 09:24:15;;;;;;;3.28;1.90;;;26.90;61.90;;;;;;5053801;28;20107;-78
2022/08/13 09:26:47;;;;;;;4.80;2.22;;;27.10;59.50;;;;;;5051321;28;20037;-78
2022/08/13 09:29:14;;;;;;;2.72;2.15;;;27.20;57.50;;;;;;5067245;28;20435;-79
2022/08/13 09:31:44;;;;;;;4.22;2.33;;;27.30;56.20;;;;;;5065086;28;20048;-78
2022/08/13 09:34:11;;;;;;;4.00;2.00;;;27.60;55.90;;;;;;5071171;28;20098;-79
2022/08/13 09:36:38;;;;;;;4.55;2.53;;;28.20;56.80;;;;;;5071693;28;20021;-79
2022/08/13 09:39:05;;;;;;;4.80;1.85;;;29.00;53.00;;;;;;5050879;28;20028;-79
2022/08/13 09:41:40;;;;;;;3.13;2.00;;;29.90;50.60;;;;;;5042948;28;20048;-79
2022/08/13 09:44:06;;;;;;;5.28;2.38;;;30.90;47.40;;;;;;5060152;28;20024;-79
2022/08/13 09:46:35;;;;;;;5.53;2.40;;;31.70;43.30;;;;;;5061631;28;20102;-79
2022/08/13 09:49:03;;;;;;;3.97;1.73;;;33.10;42.30;;;;;;5045522;28;20024;-79
2022/08/13 09:51:35;;;;;;;3.20;2.00;;;34.50;39.10;;;;;;5069309;28;20044;-80
2022/08/13 09:54:08;;;;;;;3.53;1.60;;;35.40;34.90;;;;;;5050663;28;20013;-80
2022/08/13 09:56:37;;;;;;;3.78;1.40;;;36.40;31.90;;;;;;5052769;28;20082;-80
2022/08/13 09:59:08;;;;;;;2.92;1.77;;;37.20;31.50;;;;;;5044925;28;20028;-80
2022/08/13 10:01:35;;;;;;;7.75;3.92;;;37.70;30.80;;;;;;5068926;28;20082;-80
2022/08/13 10:04:01;;;;;;;4.10;2.35;;;38.00;28.40;;;;;;5052001;28;20059;-80
2022/08/13 10:06:28;;;;;;;2.30;1.40;;;38.50;29.00;;;;;;5069266;28;20060;-80
2022/08/13 10:08:55;;;;;;;1.95;1.75;;;39.70;28.10;;;;;;5070504;28;20017;-80
2022/08/13 10:11:22;;;;;;;3.50;2.22;;;39.70;26.60;;;;;;5052472;28;20016;-80
2022/08/13 10:13:48;;;;;;;2.03;1.50;;;40.00;27.10;;;;;;5052023;28;20203;-80
2022/08/13 10:16:14;;;;;;;9.10;3.75;;;40.50;27.10;;;;;;5052847;28;20028;-81
2022/08/13 10:18:41;;;;;;;2.92;1.90;;;40.80;26.40;;;;;;5053294;28;20016;-80
2022/08/13 10:21:08;;;;;;;2.58;1.85;;;41.10;25.70;;;;;;5052467;28;20071;-80
2022/08/13 10:23:35;;;;;;;3.25;2.00;;;41.40;25.80;;;;;;5070181;28;20028;-80
2022/08/13 10:26:01;;;;;;;2.72;2.13;;;41.60;26.20;;;;;;5051965;28;20040;-80
2022/08/13 10:28:32;;;;;;;2.63;1.90;;;41.80;24.40;;;;;;5070640;28;20028;-80
2022/08/13 10:31:03;;;;;;;5.57;1.90;;;41.20;25.00;;;;;;5070944;28;20077;-80
2022/08/13 10:33:29;;;;;;;2.58;1.77;;;41.50;24.30;;;;;;5070340;28;20099;-80
2022/08/13 10:35:55;;;;;;;2.63;1.70;;;41.80;23.80;;;;;;5070704;28;20103;-80
2022/08/13 10:38:25;;;;;;;2.53;1.42;;;41.30;23.70;;;;;;5062877;28;20453;-80
2022/08/13 10:40:51;;;;;;;3.35;1.80;;;42.00;23.30;;;;;;5069990;28;20421;-80
2022/08/13 10:43:17;;;;;;;1.95;1.50;;;42.50;22.80;;;;;;5070202;28;20025;-80
2022/08/13 10:45:45;;;;;;;3.58;2.00;;;42.70;23.90;;;;;;5071016;28;20016;-81
2022/08/13 10:48:12;;;;;;;3.42;1.77;;;42.40;22.70;;;;;;5052144;28;20025;-81
2022/08/13 10:50:38;;;;;;;2.97;1.83;;;41.80;23.70;;;;;;5066631;28;20607;-81
2022/08/13 10:53:05;;;;;;;4.00;1.67;;;41.90;23.70;;;;;;5094046;22;20501;-74
2022/08/13 10:55:32;;;;;;;5.20;1.83;;;42.10;23.40;;;;;;5070474;28;20032;-73
2022/08/13 10:57:58;;;;;;;4.45;1.67;;;42.40;22.10;;;;;;5070357;28;20016;-73
2022/08/13 11:00:25;;;;;;;5.40;1.85;;;42.10;22.90;;;;;;5070216;28;20470;-73
2022/08/13 11:02:51;;;;;;;4.20;1.70;;;42.40;22.30;;;;;;5059246;28;20033;-73
2022/08/13 11:05:25;;;;;;;4.90;1.90;;;42.20;24.20;;;;;;5051415;28;20378;-73
2022/08/13 11:07:53;;;;;;;3.67;1.63;;;42.60;22.40;;;;;;5051120;28;20100;-73
2022/08/13 11:10:21;;;;;;;3.78;1.60;;;41.50;21.60;;;;;;5051535;28;20021;-74
2022/08/13 11:12:50;;;;;;;2.75;1.52;;;42.60;22.00;;;;;;5051524;28;20100;-74
2022/08/13 11:15:21;;;;;;;2.83;1.23;;;42.60;20.60;;;;;;5051857;28;20034;-74
2022/08/13 11:17:53;;;;;;;2.45;1.50;;;42.60;21.50;;;;;;5050522;28;20047;-73
2022/08/13 11:20:20;;;;;;;1.52;1.27;;;43.00;19.90;;;;;;5027136;28;20021;-73
2022/08/13 11:22:55;;;;;;;2.63;1.38;;;43.30;19.30;;;;;;5051087;28;20027;-73
2022/08/13 11:25:23;;;;;;;2.65;1.70;;;43.80;18.70;;;;;;5051576;28;20108;-74
2022/08/13 11:27:49;;;;;;;4.32;1.33;;;43.40;20.10;;;;;;5058368;28;20027;-73
2022/08/13 11:30:16;;;;;;;3.35;1.33;;;43.50;18.40;;;;;;5044186;28;20028;-74
2022/08/13 11:32:42;;;;;;;2.70;1.38;;;44.00;18.20;;;;;;5052697;28;20024;-73
2022/08/13 11:35:09;;;;;;;1.55;1.23;;;43.60;17.80;;;;;;5054999;28;20025;-74
2022/08/13 11:37:35;;;;;;;3.40;1.00;;;43.90;18.50;;;;;;5054925;28;20013;-74
2022/08/13 11:40:03;;;;;;;3.38;1.00;;;44.10;17.90;;;;;;5055439;28;20492;-74
2022/08/13 11:42:30;;;;;;;2.92;1.10;;;44.60;17.10;;;;;;5055223;28;20060;-74
2022/08/13 11:44:56;;;;;;;3.67;1.27;;;45.30;18.00;;;;;;5055555;28;20409;-74
2022/08/13 11:47:22;;;;;;;1.42;1.33;;;44.70;17.90;;;;;;5055440;28;20025;-74
2022/08/13 11:49:48;;;;;;;1.58;1.25;;;44.10;19.40;;;;;;5055253;28;20064;-73
2022/08/13 11:52:13;;;;;;;1.17;1.08;;;44.60;17.70;;;;;;5075905;22;20040;-81
2022/08/13 11:54:39;;;;;;;4.03;1.38;;;45.10;18.20;;;;;;5073278;28;20081;-81
2022/08/13 11:57:06;;;;;;;5.57;1.55;;;45.00;18.40;;;;;;5055428;28;20078;-80
2022/08/13 11:59:33;;;;;;;2.70;1.15;;;45.60;17.80;;;;;;5055500;28;20028;-81
2022/08/13 12:01:58;;;;;;;5.57;0.95;;;45.40;18.00;;;;;;5068930;28;20051;-81
2022/08/13 12:04:25;;;;;;;0.90;0.90;;;44.90;18.00;;;;;;5036418;28;20386;-81
2022/08/13 12:06:50;;;;;;;0.85;0.80;;;46.20;17.70;;;;;;5054469;28;20079;-81
2022/08/13 12:09:20;;;;;;;2.35;0.80;;;47.20;16.80;;;;;;5036452;28;20017;-81
2022/08/13 12:11:46;;;;;;;0.90;0.90;;;47.20;16.20;;;;;;5054410;28;20114;-81
2022/08/13 12:14:12;;;;;;;1.25;0.90;;;46.80;15.60;;;;;;5053573;28;20033;-80
2022/08/13 12:16:37;;;;;;;0.47;0.47;;;47.50;16.10;;;;;;5036043;28;20119;-81
2022/08/13 12:19:03;;;;;;;1.85;1.33;;;46.50;15.50;;;;;;5035846;28;20896;-81
2022/08/13 12:21:29;;;;;;;0.80;0.77;;;46.70;15.40;;;;;;5036537;28;20059;-81
2022/08/13 12:23:55;;;;;;;3.45;0.70;;;47.60;15.90;;;;;;5053929;28;20478;-81
2022/08/13 12:26:21;;;;;;;0.90;0.70;;;47.60;15.20;;;;;;5054297;28;20029;-81
2022/08/13 12:28:46;;;;;;;1.02;0.90;;;46.90;15.50;;;;;;5036105;28;20028;-82
2022/08/13 12:31:14;;;;;;;2.45;0.88;;;45.80;15.50;;;;;;5053868;28;20056;-81
2022/08/13 12:33:40;;;;;;;1.48;0.80;;;46.30;14.90;;;;;;5035658;28;20017;-82
2022/08/13 12:36:07;;;;;;;1.33;0.65;;;45.90;15.70;;;;;;5036271;28;20492;-81
2022/08/13 12:38:33;;;;;;;1.80;0.80;;;46.50;15.90;;;;;;5053527;28;20035;-81
2022/08/13 12:41:00;;;;;;;2.15;0.70;;;47.40;16.00;;;;;;5036223;28;20039;-81
2022/08/13 12:43:26;;;;;;;1.23;0.70;;;47.90;14.90;;;;;;5053543;28;20423;-81
2022/08/13 12:45:52;;;;;;;0.98;0.65;;;47.50;15.50;;;;;;5053974;28;20017;-81
2022/08/13 12:48:18;;;;;;;0.85;0.60;;;48.00;14.90;;;;;;5053605;28;20032;-81
2022/08/13 12:50:46;;;;;;;4.65;0.65;;;48.40;14.90;;;;;;5053940;28;20021;-82
2022/08/13 12:53:12;;;;;;;0.77;0.70;;;48.00;15.30;;;;;;5087382;22;20127;-73
2022/08/13 12:55:40;;;;;;;2.83;0.75;;;47.70;14.60;;;;;;5072704;28;20020;-73
2022/08/13 12:58:12;;;;;;;1.20;0.60;;;48.20;14.60;;;;;;5072374;28;20021;-73
2022/08/13 13:00:38;;;;;;;1.85;0.80;;;48.50;14.30;;;;;;5072528;28;20025;-73
2022/08/13 13:03:03;;;;;;;3.78;1.00;;;48.70;14.10;;;;;;5072974;28;20020;-74
2022/08/13 13:05:30;;;;;;;2.00;0.63;;;48.10;14.60;;;;;;5072244;28;20496;-74
2022/08/13 13:07:57;;;;;;;0.75;0.50;;;48.50;15.90;;;;;;5072619;28;20169;-73
2022/08/13 13:10:22;;;;;;;1.55;0.77;;;48.10;16.80;;;;;;5058708;28;20100;-74
2022/08/13 13:12:48;;;;;;;2.08;0.70;;;48.90;15.00;;;;;;5071154;28;20611;-73
2022/08/13 13:15:14;;;;;;;1.20;0.70;;;49.00;13.90;;;;;;5071329;28;20087;-73